Beech Grove, Texas
Current Conditions -  °F | °C
As of 1:55 PM on Thursday 30 Oct 2014 (Local Time) from KJAS Reporting Station
Clear Clear  
Wind Chill: 22°   Ceiling: Unl
Heat Index: 22°   Visibility: 10mi
Dew Point:   Wind: 3mph
Humidity: 34%   Direction: 60°ENE
Pressure: 30.13"   Gusts: NA
Location:  30.9529°N, 94.0707°W
Report Text: KJAS 301855Z AUTO 06003KT 10SM CLR 22/06 A3013 RMK AO2 T02190055
Loading
Personal Weather Stations






























Interactive Weather Map
Tropical Storm Tracking
New forecast layout! Learn more

10-Day Weather Forecast

Advertisements
Track Severe Weather on mobile